Time;durP1;ratioP1;P1;durP2;ratioP2;P2;SDS_P1;SDS_P2;PMS_P1;PMS_P2;Temp;Humidity;BMP_temperature;BMP_pressure;BME280_temperature;BME280_humidity;BME280_pressure;Samples;Min_cycle;Max_cycle;Signal;HPM_P1;HPM_P2
2022/09/10 00:01:54;;;;;;;16.58;15.18;;;15.10;99.90;;;;;;5055775;28;20043;-84
2022/09/10 00:04:20;;;;;;;19.75;17.88;;;15.10;99.90;;;;;;5043849;28;21003;-84
2022/09/10 00:06:49;;;;;;;19.55;17.70;;;15.10;99.90;;;;;;5060724;28;20051;-84
2022/09/10 00:09:15;;;;;;;20.70;18.80;;;15.10;99.90;;;;;;5037408;28;20048;-84
2022/09/10 00:11:42;;;;;;;17.15;15.55;;;15.00;99.90;;;;;;5061265;28;20044;-84
2022/09/10 00:14:19;;;;;;;17.38;15.85;;;15.10;99.90;;;;;;5080433;28;20055;-84
2022/09/10 00:16:49;;;;;;;19.42;17.70;;;15.10;99.90;;;;;;5066161;28;20051;-84
2022/09/10 00:19:16;;;;;;;21.45;19.33;;;15.10;99.90;;;;;;5059072;28;20131;-84
2022/09/10 00:21:43;;;;;;;30.63;24.42;;;15.00;99.90;;;;;;5057341;28;20045;-84
2022/09/10 00:24:15;;;;;;;26.45;23.70;;;15.10;99.90;;;;;;5078716;28;20047;-85
2022/09/10 00:26:41;;;;;;;20.95;19.05;;;15.10;99.90;;;;;;5067473;28;20059;-85
2022/09/10 00:29:09;;;;;;;21.40;19.48;;;15.10;99.90;;;;;;5062703;28;20060;-84
2022/09/10 00:31:36;;;;;;;21.92;19.92;;;15.10;99.90;;;;;;5068566;28;20059;-84
2022/09/10 00:34:04;;;;;;;25.60;21.85;;;15.00;99.90;;;;;;5057884;28;20160;-84
2022/09/10 00:36:39;;;;;;;21.98;20.00;;;15.10;99.90;;;;;;5061727;28;20040;-84
2022/09/10 00:39:17;;;;;;;20.60;18.80;;;15.10;99.90;;;;;;5057271;28;20407;-85
2022/09/10 00:41:48;;;;;;;26.02;23.42;;;15.00;99.90;;;;;;5037264;28;20048;-84
2022/09/10 00:44:36;;;;;;;27.13;24.38;;;15.00;99.90;;;;;;5061052;28;20183;-84
2022/09/10 00:47:03;;;;;;;23.20;21.10;;;15.00;99.90;;;;;;5057982;28;20051;-84
2022/09/10 00:49:37;;;;;;;24.38;22.13;;;15.00;99.90;;;;;;5051262;28;20051;-84
2022/09/10 00:52:04;;;;;;;28.35;25.60;;;14.90;99.90;;;;;;5064258;28;20490;-84
2022/09/10 00:54:32;;;;;;;22.95;20.77;;;15.00;99.90;;;;;;5062013;28;20677;-83
2022/09/10 00:57:10;;;;;;;27.08;24.38;;;14.90;99.90;;;;;;5078078;28;20421;-83
2022/09/10 00:59:36;;;;;;;26.50;24.05;;;14.90;99.90;;;;;;5074182;28;20043;-83
2022/09/10 01:02:02;;;;;;;26.25;23.85;;;14.90;99.90;;;;;;5050831;28;20533;-79
2022/09/10 01:04:28;;;;;;;27.10;24.33;;;14.90;99.90;;;;;;5042855;28;20041;-80
2022/09/10 01:06:55;;;;;;;23.63;21.45;;;14.90;99.90;;;;;;5044687;28;20041;-80
2022/09/10 01:09:22;;;;;;;26.77;24.33;;;14.90;99.90;;;;;;5025972;28;20035;-80
2022/09/10 01:12:03;;;;;;;24.52;22.15;;;15.00;99.90;;;;;;5057435;28;20043;-80
2022/09/10 01:15:08;;;;;;;29.20;26.33;;;14.90;99.90;;;;;;5072273;28;20123;-83
2022/09/10 01:18:12;;;;;;;27.92;25.13;;;15.00;99.90;;;;;;5039299;28;20106;-84
2022/09/10 01:20:56;;;;;;;29.80;26.83;;;15.00;99.90;;;;;;5048628;28;20523;-82
2022/09/10 01:24:00;;;;;;;28.33;25.50;;;14.90;99.90;;;;;;5041306;28;20048;-84
2022/09/10 01:27:07;;;;;;;28.98;26.38;;;15.00;99.90;;;;;;5070118;28;20083;-84
2022/09/10 01:29:52;;;;;;;30.55;27.63;;;15.00;99.90;;;;;;5026731;28;20093;-84
2022/09/10 01:32:32;;;;;;;30.85;27.73;;;14.90;99.90;;;;;;5059614;28;20083;-84
2022/09/10 01:35:03;;;;;;;;;;;14.90;99.90;;;;;;5069530;28;20066;-85
2022/09/10 01:37:31;;;;;;;26.13;23.92;;;14.90;99.90;;;;;;5069499;28;19920;-84
2022/09/10 01:40:00;;;;;;;27.98;25.30;;;14.90;99.90;;;;;;5071357;28;20052;-85
2022/09/10 01:42:27;;;;;;;31.63;28.55;;;15.00;99.90;;;;;;5050234;28;20052;-84
2022/09/10 01:44:56;;;;;;;34.85;31.13;;;15.00;99.90;;;;;;5066658;28;20103;-81
2022/09/10 01:47:22;;;;;;;31.40;28.30;;;15.00;99.90;;;;;;5051537;28;20044;-80
2022/09/10 01:50:06;;;;;;;29.17;26.30;;;15.00;99.90;;;;;;5051337;28;20051;-80
2022/09/10 01:52:44;;;;;;;33.97;30.63;;;15.00;99.90;;;;;;5059732;28;20135;-85
2022/09/10 01:55:33;;;;;;;34.05;30.45;;;15.10;99.90;;;;;;5047919;28;20110;-84
2022/09/10 01:58:15;;;;;;;35.50;31.92;;;15.00;99.90;;;;;;5068357;28;20040;-81
2022/09/10 02:01:03;;;;;;;40.65;35.72;;;15.00;99.90;;;;;;5063836;28;21434;-81
2022/09/10 02:03:30;;;;;;;36.88;32.95;;;15.00;99.90;;;;;;5043723;28;20071;-81
2022/09/10 02:05:59;;;;;;;35.95;32.45;;;15.00;99.90;;;;;;5037785;28;20048;-81
2022/09/10 02:08:38;;;;;;;34.58;31.30;;;15.00;99.90;;;;;;5038720;28;20044;-80
2022/09/10 02:11:05;;;;;;;37.45;33.70;;;15.00;99.90;;;;;;5049605;28;20080;-80
2022/09/10 02:13:33;;;;;;;35.92;32.45;;;15.10;99.90;;;;;;5044838;28;20051;-81
2022/09/10 02:16:02;;;;;;;32.50;29.50;;;15.10;99.90;;;;;;5053709;28;20036;-85
2022/09/10 02:18:30;;;;;;;32.35;29.35;;;15.10;99.90;;;;;;5043347;28;20036;-85
2022/09/10 02:21:02;;;;;;;31.45;28.55;;;15.10;99.90;;;;;;5045480;28;20079;-85
2022/09/10 02:23:38;;;;;;;34.20;30.88;;;15.00;99.90;;;;;;5065455;28;20135;-84
2022/09/10 02:26:08;;;;;;;54.42;38.00;;;15.10;99.90;;;;;;5053407;28;20071;-87
2022/09/10 02:28:34;;;;;;;;;;;15.00;99.90;;;;;;5047891;28;20130;-85
2022/09/10 02:31:00;;;;;;;50.33;37.67;;;15.00;99.90;;;;;;5043875;28;19924;-85
2022/09/10 02:33:27;;;;;;;35.30;31.55;;;15.00;99.90;;;;;;5047308;28;20051;-85
2022/09/10 02:35:53;;;;;;;31.20;28.40;;;15.00;99.90;;;;;;5047972;28;20048;-85
2022/09/10 02:38:20;;;;;;;32.67;29.42;;;15.00;99.90;;;;;;5043446;28;20063;-81
2022/09/10 02:40:50;;;;;;;32.10;29.13;;;15.00;99.90;;;;;;5068089;28;20048;-80
2022/09/10 02:43:16;;;;;;;30.77;27.98;;;15.00;99.90;;;;;;5042798;28;20085;-80
2022/09/10 02:45:42;;;;;;;31.65;28.65;;;15.00;99.90;;;;;;5071514;28;20054;-81
2022/09/10 02:48:08;;;;;;;32.95;29.60;;;15.00;99.90;;;;;;5040868;28;20049;-80
2022/09/10 02:50:34;;;;;;;33.92;30.33;;;15.00;99.90;;;;;;5053815;28;20055;-80
2022/09/10 02:53:00;;;;;;;30.25;27.20;;;15.00;99.90;;;;;;5064125;28;20742;-81
2022/09/10 02:55:27;;;;;;;31.05;27.98;;;15.00;99.90;;;;;;5042814;28;20130;-85
2022/09/10 02:57:54;;;;;;;35.30;31.55;;;15.00;99.90;;;;;;5047468;28;20056;-85
2022/09/10 03:00:21;;;;;;;30.23;27.17;;;15.00;99.90;;;;;;5056342;28;20051;-85
2022/09/10 03:02:50;;;;;;;46.10;34.65;;;15.00;99.90;;;;;;5051182;28;20040;-85
2022/09/10 03:05:16;;;;;;;47.63;36.00;;;15.00;99.90;;;;;;5052578;28;20040;-85
2022/09/10 03:07:42;;;;;;;34.30;30.92;;;15.00;99.90;;;;;;5072466;28;20146;-85
2022/09/10 03:10:09;;;;;;;39.30;33.78;;;15.00;99.90;;;;;;5054462;28;20170;-86
2022/09/10 03:12:38;;;;;;;35.70;32.00;;;15.00;99.90;;;;;;5071582;28;20047;-87
2022/09/10 03:15:06;;;;;;;33.17;29.92;;;15.00;99.90;;;;;;5043922;28;20032;-85
2022/09/10 03:17:31;;;;;;;30.90;28.08;;;14.90;99.90;;;;;;5053698;28;20104;-86
2022/09/10 03:19:57;;;;;;;32.03;29.02;;;15.00;99.90;;;;;;5055063;28;20052;-85
2022/09/10 03:22:23;;;;;;;32.97;29.48;;;15.00;99.90;;;;;;5036166;28;20044;-85
2022/09/10 03:24:49;;;;;;;36.60;32.60;;;15.00;99.90;;;;;;5025790;28;20407;-86
2022/09/10 03:27:15;;;;;;;35.08;31.42;;;15.00;99.90;;;;;;5048654;28;20064;-86
2022/09/10 03:29:42;;;;;;;30.83;27.98;;;15.00;99.90;;;;;;5042027;28;20479;-85
2022/09/10 03:32:07;;;;;;;36.20;32.63;;;15.00;99.90;;;;;;5067363;28;20039;-86
2022/09/10 03:34:33;;;;;;;35.65;31.90;;;15.00;99.90;;;;;;5058171;28;20308;-86
2022/09/10 03:36:59;;;;;;;34.22;30.80;;;15.00;99.90;;;;;;5069822;28;20035;-86
2022/09/10 03:39:25;;;;;;;34.10;30.55;;;15.00;99.90;;;;;;5056707;28;20064;-85
2022/09/10 03:41:53;;;;;;;35.03;31.60;;;15.00;99.90;;;;;;5043792;28;20077;-86
2022/09/10 03:44:19;;;;;;;32.22;28.90;;;15.00;99.90;;;;;;5041758;28;20036;-85
2022/09/10 03:46:47;;;;;;;35.47;31.77;;;14.90;99.90;;;;;;5025196;28;20384;-86
2022/09/10 03:49:13;;;;;;;34.25;30.83;;;14.90;99.90;;;;;;5025007;28;20076;-86
2022/09/10 03:51:39;;;;;;;34.72;31.00;;;15.00;99.90;;;;;;5050740;28;20479;-85
2022/09/10 03:54:05;;;;;;;42.55;35.10;;;14.90;99.90;;;;;;5040663;28;20054;-86
2022/09/10 03:56:33;;;;;;;34.45;31.05;;;14.90;99.90;;;;;;5049364;28;20678;-85
2022/09/10 03:58:59;;;;;;;33.25;30.10;;;14.90;99.90;;;;;;5052601;28;20118;-85
2022/09/10 04:01:25;;;;;;;30.70;27.48;;;15.00;99.90;;;;;;5034968;28;20037;-87
2022/09/10 04:03:55;;;;;;;29.40;26.40;;;15.00;99.90;;;;;;5033822;28;20513;-85
2022/09/10 04:06:21;;;;;;;33.22;29.80;;;15.00;99.90;;;;;;5044336;28;20108;-85
2022/09/10 04:08:51;;;;;;;38.30;32.70;;;15.00;99.90;;;;;;5052006;28;20044;-86
2022/09/10 04:11:18;;;;;;;44.88;35.63;;;15.00;99.90;;;;;;5057604;28;20535;-85
2022/09/10 04:13:48;;;;;;;34.90;31.25;;;15.00;99.90;;;;;;5046031;28;20036;-85
2022/09/10 04:16:15;;;;;;;34.43;31.13;;;15.00;99.90;;;;;;5042014;28;20282;-85
2022/09/10 04:18:41;;;;;;;36.47;32.78;;;15.00;99.90;;;;;;5050670;28;20044;-86
2022/09/10 04:21:07;;;;;;;35.05;31.42;;;15.00;99.90;;;;;;5021322;28;20064;-85
2022/09/10 04:23:32;;;;;;;42.72;35.08;;;15.00;99.90;;;;;;5025059;28;20201;-85
2022/09/10 04:25:58;;;;;;;45.17;35.83;;;15.00;99.90;;;;;;5049653;28;20047;-86
2022/09/10 04:28:24;;;;;;;31.60;28.25;;;15.00;99.90;;;;;;5037077;28;20057;-86
2022/09/10 04:30:50;;;;;;;33.90;30.40;;;15.00;99.90;;;;;;5027277;28;20040;-85
2022/09/10 04:33:17;;;;;;;37.22;33.15;;;15.10;99.90;;;;;;5041458;28;20043;-85
2022/09/10 04:35:43;;;;;;;32.78;29.45;;;15.10;99.90;;;;;;5070064;28;20040;-84
2022/09/10 04:38:08;;;;;;;32.58;29.15;;;15.10;99.90;;;;;;5034522;28;20036;-84
2022/09/10 04:40:35;;;;;;;40.80;34.25;;;15.10;99.90;;;;;;5052350;28;20047;-84
2022/09/10 04:43:01;;;;;;;35.05;31.40;;;15.10;99.90;;;;;;5040735;28;20105;-84
2022/09/10 04:45:31;;;;;;;34.97;31.17;;;15.10;99.90;;;;;;5051941;28;20066;-85
2022/09/10 04:47:58;;;;;;;31.30;28.13;;;15.10;99.90;;;;;;5035478;28;20596;-85
2022/09/10 04:50:23;;;;;;;31.73;28.08;;;15.10;99.90;;;;;;5048999;28;20041;-84
2022/09/10 04:52:49;;;;;;;30.92;27.65;;;15.20;99.90;;;;;;5017934;28;20040;-85
2022/09/10 04:55:15;;;;;;;34.20;30.65;;;15.20;99.90;;;;;;5045165;28;20447;-85
2022/09/10 04:57:41;;;;;;;32.25;28.90;;;15.20;99.90;;;;;;5041143;28;20040;-85
2022/09/10 05:00:11;;;;;;;35.30;31.23;;;15.20;99.90;;;;;;5042130;28;20072;-85
2022/09/10 05:02:37;;;;;;;35.28;31.50;;;15.20;99.90;;;;;;5057438;28;21261;-85
2022/09/10 05:05:03;;;;;;;39.95;32.47;;;15.20;99.90;;;;;;5025636;28;20036;-85
2022/09/10 05:07:29;;;;;;;42.92;34.03;;;15.20;99.90;;;;;;5048973;28;20302;-84
2022/09/10 05:09:55;;;;;;;40.05;30.70;;;15.20;99.90;;;;;;5038611;28;20552;-80
2022/09/10 05:12:22;;;;;;;41.45;34.55;;;15.20;99.90;;;;;;5034333;28;20224;-80
2022/09/10 05:14:48;;;;;;;41.65;32.45;;;15.20;99.90;;;;;;5019123;28;20075;-79
2022/09/10 05:17:14;;;;;;;44.67;36.78;;;15.20;99.90;;;;;;5022793;28;20087;-80
2022/09/10 05:19:40;;;;;;;35.95;31.73;;;15.20;99.90;;;;;;5025447;28;20055;-80
2022/09/10 05:22:09;;;;;;;41.90;34.17;;;15.20;99.90;;;;;;5050184;28;20059;-80
2022/09/10 05:24:34;;;;;;;38.13;31.20;;;15.30;99.90;;;;;;5048398;28;20598;-81
2022/09/10 05:27:00;;;;;;;42.58;34.65;;;15.30;99.90;;;;;;5045657;28;20044;-86
2022/09/10 05:29:26;;;;;;;32.13;28.67;;;15.20;99.90;;;;;;5035711;28;20040;-86
2022/09/10 05:31:55;;;;;;;43.65;35.60;;;15.30;99.90;;;;;;5024823;28;20045;-86
2022/09/10 05:34:21;;;;;;;41.05;34.22;;;15.30;99.90;;;;;;5041232;28;20036;-86
2022/09/10 05:36:47;;;;;;;36.72;32.88;;;15.30;99.90;;;;;;5033374;28;20044;-86
2022/09/10 05:39:14;;;;;;;44.78;33.65;;;15.30;99.90;;;;;;5046273;28;20056;-86
2022/09/10 05:41:42;;;;;;;38.70;31.92;;;15.30;99.90;;;;;;5037754;28;20486;-86
2022/09/10 05:44:08;;;;;;;41.05;33.90;;;15.40;99.90;;;;;;5046801;28;20514;-86
2022/09/10 05:46:33;;;;;;;39.83;31.65;;;15.40;99.90;;;;;;5040136;28;20071;-86
2022/09/10 05:48:59;;;;;;;53.10;37.17;;;15.40;99.90;;;;;;5062512;28;20579;-86
2022/09/10 05:51:28;;;;;;;46.75;34.60;;;15.40;99.90;;;;;;5022059;28;20059;-86
2022/09/10 05:53:55;;;;;;;35.22;30.02;;;15.40;99.90;;;;;;5048566;28;20550;-86
2022/09/10 05:56:21;;;;;;;41.33;34.45;;;15.40;99.90;;;;;;5032156;28;20055;-86
2022/09/10 05:58:46;;;;;;;36.88;32.60;;;15.40;99.90;;;;;;5055326;28;20036;-86
2022/09/10 06:01:16;;;;;;;36.92;32.10;;;15.50;99.90;;;;;;5064356;28;20051;-86
2022/09/10 06:03:41;;;;;;;38.75;33.20;;;15.50;99.90;;;;;;5065888;28;20109;-86
2022/09/10 06:06:08;;;;;;;41.35;32.78;;;15.50;99.90;;;;;;5021823;28;20040;-86
2022/09/10 06:08:34;;;;;;;38.80;32.78;;;15.50;99.90;;;;;;5057291;28;20474;-81
2022/09/10 06:11:06;;;;;;;37.75;32.10;;;15.60;99.90;;;;;;5043467;28;20753;-87
2022/09/10 06:13:33;;;;;;;44.50;33.47;;;15.60;99.90;;;;;;5067251;28;20048;-87
2022/09/10 06:15:59;;;;;;;39.55;31.92;;;15.60;99.90;;;;;;5048666;28;20135;-86
2022/09/10 06:18:26;;;;;;;42.13;32.30;;;15.60;99.90;;;;;;5038819;28;20121;-87
2022/09/10 06:21:11;;;;;;;36.92;31.02;;;15.60;99.90;;;;;;5062547;28;20047;-87
2022/09/10 06:23:41;;;;;;;36.20;30.02;;;15.60;99.90;;;;;;5028468;28;20051;-86
2022/09/10 06:26:15;;;;;;;40.03;32.47;;;15.60;99.90;;;;;;5042406;28;20050;-87
2022/09/10 06:28:42;;;;;;;37.80;31.65;;;15.60;99.90;;;;;;5041351;28;20123;-86
2022/09/10 06:31:10;;;;;;;45.33;33.15;;;15.60;99.90;;;;;;5037022;28;20508;-86
2022/09/10 06:33:36;;;;;;;37.03;31.65;;;15.60;99.90;;;;;;5039250;28;20526;-86
2022/09/10 06:36:02;;;;;;;43.00;32.78;;;15.70;99.90;;;;;;5039633;28;20048;-87
2022/09/10 06:38:32;;;;;;;49.40;34.72;;;15.70;99.90;;;;;;5044378;28;20458;-86
2022/09/10 06:41:00;;;;;;;42.70;32.38;;;15.70;99.90;;;;;;5057999;28;20050;-88
2022/09/10 06:43:30;;;;;;;39.80;30.58;;;15.70;99.90;;;;;;5048989;28;20222;-80
2022/09/10 06:45:56;;;;;;;39.22;31.27;;;15.80;99.90;;;;;;5044007;28;20121;-80
2022/09/10 06:48:26;;;;;;;41.60;33.58;;;15.80;99.90;;;;;;5055919;28;20506;-87
2022/09/10 06:50:54;;;;;;;37.60;32.03;;;15.70;99.90;;;;;;5041817;28;20907;-88
2022/09/10 06:53:21;;;;;;;37.38;30.95;;;15.80;99.90;;;;;;5033567;28;20251;-87
2022/09/10 06:55:49;;;;;;;38.65;33.63;;;15.80;99.90;;;;;;5043993;28;20061;-90
2022/09/10 06:58:16;;;;;;;44.65;33.50;;;15.80;99.90;;;;;;5066895;28;21335;-88
2022/09/10 07:00:44;;;;;;;41.10;31.98;;;15.80;99.90;;;;;;5048250;28;20359;-81
2022/09/10 07:03:09;;;;;;;39.03;32.88;;;15.90;99.90;;;;;;5017705;28;20476;-81
2022/09/10 07:05:38;;;;;;;44.42;35.60;;;15.90;99.90;;;;;;5038969;28;20039;-81
2022/09/10 07:08:04;;;;;;;41.75;32.03;;;15.90;99.90;;;;;;5044612;28;20044;-80
2022/09/10 07:10:30;;;;;;;39.97;31.67;;;15.90;99.90;;;;;;5059797;28;20057;-81
2022/09/10 07:12:56;;;;;;;40.80;32.53;;;16.00;99.90;;;;;;5043978;28;20203;-81
2022/09/10 07:15:21;;;;;;;41.97;33.97;;;16.00;99.90;;;;;;5035154;28;20044;-81
2022/09/10 07:17:47;;;;;;;39.67;33.28;;;16.00;99.90;;;;;;5032547;28;20051;-80
2022/09/10 07:20:13;;;;;;;42.92;32.35;;;16.10;99.90;;;;;;5062865;28;20041;-80
2022/09/10 07:22:42;;;;;;;41.78;32.13;;;16.10;99.90;;;;;;5045311;28;20044;-88
2022/09/10 07:25:08;;;;;;;45.33;33.13;;;16.10;99.90;;;;;;5039890;28;20048;-88
2022/09/10 07:27:34;;;;;;;34.47;30.35;;;16.20;99.90;;;;;;5031663;28;20700;-88
2022/09/10 07:30:00;;;;;;;37.60;30.88;;;16.20;99.90;;;;;;5049735;28;20080;-88
2022/09/10 07:32:26;;;;;;;35.35;31.25;;;16.20;99.90;;;;;;5053387;28;20495;-88
2022/09/10 07:34:52;;;;;;;38.33;34.08;;;16.20;99.90;;;;;;5042001;28;20815;-88
2022/09/10 07:37:17;;;;;;;36.92;31.73;;;16.30;99.90;;;;;;5048095;28;20137;-87
2022/09/10 07:39:44;;;;;;;39.10;32.60;;;16.30;99.90;;;;;;5054765;28;20070;-87
2022/09/10 07:42:10;;;;;;;37.05;31.92;;;16.30;99.90;;;;;;5048575;28;20047;-89
2022/09/10 07:44:36;;;;;;;38.42;29.95;;;16.30;99.90;;;;;;5050414;28;20052;-88
2022/09/10 07:47:02;;;;;;;42.05;32.38;;;16.30;99.90;;;;;;5047697;28;20055;-88
2022/09/10 07:49:29;;;;;;;39.78;31.83;;;16.40;99.90;;;;;;5041816;28;20487;-88
2022/09/10 07:51:58;;;;;;;40.90;32.85;;;16.40;99.90;;;;;;5046852;28;20503;-87
2022/09/10 07:54:24;;;;;;;34.38;30.80;;;16.40;99.90;;;;;;5052852;28;20059;-88
2022/09/10 07:56:50;;;;;;;33.42;29.25;;;16.40;99.90;;;;;;5032783;28;20056;-88
2022/09/10 07:59:16;;;;;;;33.75;29.02;;;16.50;99.90;;;;;;5038322;28;20052;-88
2022/09/10 08:01:42;;;;;;;32.95;28.80;;;16.50;99.90;;;;;;5054464;28;20036;-89
2022/09/10 08:04:11;;;;;;;36.00;29.40;;;16.50;99.90;;;;;;5025155;28;20098;-82
2022/09/10 08:06:39;;;;;;;32.13;28.80;;;16.50;99.90;;;;;;5021209;28;20053;-82
2022/09/10 08:09:07;;;;;;;31.38;28.02;;;16.50;99.90;;;;;;5050562;28;20119;-82
2022/09/10 08:11:33;;;;;;;32.92;29.10;;;16.50;99.90;;;;;;5047862;28;20668;-82
2022/09/10 08:13:59;;;;;;;31.38;28.20;;;16.50;99.90;;;;;;5039952;28;20036;-88
2022/09/10 08:16:26;;;;;;;30.40;27.27;;;16.60;99.90;;;;;;5050042;28;20308;-88
2022/09/10 08:18:59;;;;;;;35.22;28.42;;;16.60;99.90;;;;;;5049266;28;20044;-88
2022/09/10 08:21:25;;;;;;;28.48;25.42;;;16.70;99.90;;;;;;5049950;28;20198;-88
2022/09/10 08:23:53;;;;;;;28.35;25.25;;;16.60;99.90;;;;;;5053221;28;20079;-88
2022/09/10 08:26:22;;;;;;;32.58;27.58;;;16.60;99.90;;;;;;5046412;28;20313;-88
2022/09/10 08:29:06;;;;;;;27.95;24.15;;;16.60;99.90;;;;;;5042196;28;20569;-87
2022/09/10 08:31:33;;;;;;;26.60;23.73;;;16.70;99.90;;;;;;5052240;28;20067;-88
2022/09/10 08:34:02;;;;;;;27.48;24.58;;;16.70;99.90;;;;;;5051379;28;20043;-87
2022/09/10 08:36:28;;;;;;;26.65;23.70;;;16.70;99.90;;;;;;5050180;28;20123;-88
2022/09/10 08:38:53;;;;;;;25.52;21.80;;;16.80;99.90;;;;;;5036929;28;20161;-87
2022/09/10 08:41:38;;;;;;;22.98;20.58;;;16.80;99.90;;;;;;5069320;28;20043;-87
2022/09/10 08:44:24;;;;;;;26.08;22.05;;;16.80;99.90;;;;;;5051327;28;20139;-87
2022/09/10 08:46:50;;;;;;;24.80;22.38;;;16.80;99.90;;;;;;5066708;28;20074;-87
2022/09/10 08:49:47;;;;;;;26.27;22.90;;;16.80;99.90;;;;;;5048627;28;20044;-88
2022/09/10 08:52:20;;;;;;;26.63;23.85;;;16.90;99.90;;;;;;5024437;28;20525;-87
2022/09/10 08:54:55;;;;;;;22.38;20.08;;;16.90;99.90;;;;;;5050901;28;20052;-87
2022/09/10 08:57:45;;;;;;;24.85;22.08;;;16.90;99.90;;;;;;5049554;28;20044;-87
2022/09/10 09:00:16;;;;;;;24.98;22.30;;;16.90;99.90;;;;;;5046837;28;20060;-88
2022/09/10 09:03:11;;;;;;;23.45;20.98;;;16.90;99.90;;;;;;5068800;28;20048;-87
2022/09/10 09:05:46;;;;;;;19.77;17.67;;;16.90;99.90;;;;;;5049304;28;20044;-86
2022/09/10 09:08:24;;;;;;;24.60;20.83;;;16.90;99.90;;;;;;5065697;28;20045;-81
2022/09/10 09:11:11;;;;;;;22.02;18.95;;;16.90;99.90;;;;;;5066446;28;20403;-81
2022/09/10 09:13:59;;;;;;;20.17;17.60;;;17.00;99.90;;;;;;5065486;28;20076;-81
2022/09/10 09:16:41;;;;;;;18.95;17.08;;;17.00;99.90;;;;;;5065039;28;20047;-81
2022/09/10 09:19:44;;;;;;;18.85;16.85;;;17.00;99.90;;;;;;5054602;28;20084;-80
2022/09/10 09:22:17;;;;;;;19.80;17.88;;;17.10;99.90;;;;;;5064635;28;20438;-81
2022/09/10 09:25:28;;;;;;;20.95;17.20;;;17.10;99.90;;;;;;5047507;28;20424;-87
2022/09/10 09:27:56;;;;;;;19.55;17.55;;;17.10;99.90;;;;;;5005905;28;20162;-87
2022/09/10 09:30:32;;;;;;;21.65;17.98;;;17.30;99.90;;;;;;5045255;28;20044;-86
2022/09/10 09:33:11;;;;;;;20.33;17.52;;;17.40;99.90;;;;;;5047886;28;20494;-86
2022/09/10 09:35:56;;;;;;;20.73;17.65;;;17.40;99.90;;;;;;5067171;28;20051;-81
2022/09/10 09:38:33;;;;;;;19.05;17.05;;;17.50;99.90;;;;;;5048424;28;20047;-81
2022/09/10 09:41:14;;;;;;;18.15;16.17;;;17.60;99.90;;;;;;5065604;28;20139;-80
2022/09/10 09:43:40;;;;;;;18.13;16.00;;;17.60;99.90;;;;;;5068784;28;20065;-80
2022/09/10 09:46:24;;;;;;;18.55;16.02;;;17.60;99.90;;;;;;5064365;28;20044;-86
2022/09/10 09:48:56;;;;;;;16.90;14.95;;;17.70;99.90;;;;;;5038639;28;20044;-85
2022/09/10 09:51:24;;;;;;;17.15;15.48;;;17.80;99.90;;;;;;5064200;28;20058;-86
2022/09/10 09:53:53;;;;;;;17.35;15.60;;;17.80;99.90;;;;;;5045555;28;20071;-85
2022/09/10 09:56:30;;;;;;;16.05;14.50;;;17.80;99.90;;;;;;5071566;28;20087;-86
2022/09/10 09:59:10;;;;;;;16.88;15.18;;;17.90;99.90;;;;;;5054267;28;20475;-85
2022/09/10 10:01:41;;;;;;;16.08;14.32;;;18.00;99.90;;;;;;5052539;28;20442;-85
2022/09/10 10:04:29;;;;;;;15.52;14.02;;;18.00;99.90;;;;;;5043582;28;20511;-85
2022/09/10 10:07:00;;;;;;;17.65;12.93;;;18.10;99.90;;;;;;5042728;28;20044;-85
2022/09/10 10:09:33;;;;;;;14.65;12.43;;;18.10;99.90;;;;;;5039473;28;21084;-87
2022/09/10 10:12:04;;;;;;;14.65;12.15;;;18.30;99.90;;;;;;5050437;28;20099;-85
2022/09/10 10:14:41;;;;;;;12.68;11.43;;;18.40;99.90;;;;;;5050162;28;20451;-85
2022/09/10 10:17:34;;;;;;;13.73;10.68;;;18.50;99.90;;;;;;5046688;28;20444;-85
2022/09/10 10:20:10;;;;;;;11.00;8.93;;;18.60;99.90;;;;;;5054563;28;20050;-85
2022/09/10 10:22:41;;;;;;;12.55;11.15;;;18.70;99.90;;;;;;5055676;28;20152;-83
2022/09/10 10:25:35;;;;;;;12.35;10.25;;;18.70;99.90;;;;;;5042461;28;20105;-85
2022/09/10 10:28:01;;;;;;;11.80;9.60;;;18.80;99.90;;;;;;5050431;28;20043;-85
2022/09/10 10:30:28;;;;;;;11.48;9.30;;;18.80;99.90;;;;;;5070949;28;20410;-85
2022/09/10 10:32:56;;;;;;;11.73;10.32;;;18.90;99.90;;;;;;5052432;28;20048;-84
2022/09/10 10:35:28;;;;;;;12.77;11.32;;;18.80;99.90;;;;;;5050834;28;20068;-85
2022/09/10 10:38:05;;;;;;;13.40;12.00;;;18.80;99.90;;;;;;5048217;28;20606;-84
2022/09/10 10:40:35;;;;;;;15.32;11.80;;;18.90;99.90;;;;;;5049020;28;20074;-84
2022/09/10 10:43:17;;;;;;;14.43;12.93;;;18.90;99.90;;;;;;5053089;28;20062;-85
2022/09/10 10:46:09;;;;;;;15.63;13.95;;;18.90;99.90;;;;;;5070502;28;20410;-82
2022/09/10 10:48:42;;;;;;;14.98;13.30;;;19.00;99.90;;;;;;5045470;28;20060;-84
2022/09/10 10:51:26;;;;;;;13.15;11.88;;;19.00;99.90;;;;;;5067912;28;20071;-84
2022/09/10 10:54:28;;;;;;;13.95;12.55;;;19.10;99.90;;;;;;5050360;28;20499;-84
2022/09/10 10:57:16;;;;;;;14.55;13.13;;;19.10;99.90;;;;;;5069952;28;20055;-84
2022/09/10 11:00:05;;;;;;;15.05;12.48;;;19.20;99.90;;;;;;5066154;28;20566;-84
2022/09/10 11:02:53;;;;;;;14.68;13.00;;;19.20;99.90;;;;;;5051532;28;20040;-84
2022/09/10 11:05:37;;;;;;;13.88;12.43;;;19.30;99.90;;;;;;5073561;28;20072;-84
2022/09/10 11:08:28;;;;;;;12.43;11.13;;;19.30;99.90;;;;;;5062525;28;20048;-84
2022/09/10 11:11:08;;;;;;;14.63;11.02;;;19.30;99.90;;;;;;5075275;27;20494;-84
2022/09/10 11:13:55;;;;;;;13.27;10.27;;;19.40;99.90;;;;;;5055499;28;20056;-84
2022/09/10 11:16:44;;;;;;;11.57;9.95;;;19.40;99.90;;;;;;5072606;28;20035;-83
2022/09/10 11:19:35;;;;;;;11.10;9.93;;;19.40;99.90;;;;;;5074274;28;20139;-83
2022/09/10 11:22:31;;;;;;;11.30;10.10;;;19.40;99.90;;;;;;5051632;28;20477;-84
2022/09/10 11:25:08;;;;;;;11.27;10.00;;;19.50;99.90;;;;;;5052797;28;20437;-84
2022/09/10 11:27:43;;;;;;;9.82;8.82;;;19.50;99.90;;;;;;5071757;28;20582;-84
2022/09/10 11:30:15;;;;;;;10.82;8.77;;;19.60;99.90;;;;;;5051960;28;20048;-85
2022/09/10 11:32:58;;;;;;;12.98;11.25;;;19.80;99.90;;;;;;5051135;28;20052;-84
2022/09/10 11:35:41;;;;;;;12.88;10.93;;;19.90;99.90;;;;;;5053878;28;20531;-85
2022/09/10 11:38:34;;;;;;;11.27;9.27;;;19.90;99.90;;;;;;5059124;28;20052;-83
2022/09/10 11:41:23;;;;;;;11.70;10.30;;;19.80;99.90;;;;;;5072024;27;20048;-85
2022/09/10 11:43:57;;;;;;;13.18;11.27;;;19.80;99.90;;;;;;5078311;28;20042;-83
2022/09/10 11:46:37;;;;;;;12.77;10.98;;;19.80;99.90;;;;;;5055462;27;20051;-84
2022/09/10 11:49:32;;;;;;;12.07;9.57;;;19.80;99.90;;;;;;5071948;28;20051;-85
2022/09/10 11:51:58;;;;;;;13.88;11.30;;;19.80;99.90;;;;;;5051432;28;20048;-85
2022/09/10 11:54:27;;;;;;;12.85;10.57;;;19.70;99.90;;;;;;5046989;28;20713;-84
2022/09/10 11:57:08;;;;;;;13.63;12.20;;;19.60;99.90;;;;;;5057751;28;20048;-83
2022/09/10 12:00:01;;;;;;;13.13;11.70;;;19.60;99.90;;;;;;5074047;28;20054;-85
2022/09/10 12:02:30;;;;;;;12.07;10.88;;;19.70;99.90;;;;;;5053530;28;20285;-85
2022/09/10 12:05:18;;;;;;;14.77;11.55;;;19.70;99.90;;;;;;5054998;28;20039;-84
2022/09/10 12:08:06;;;;;;;12.65;11.35;;;19.70;99.90;;;;;;5050097;27;21461;-84
2022/09/10 12:11:03;;;;;;;13.75;10.52;;;19.70;99.90;;;;;;5054777;28;20046;-82
2022/09/10 12:13:32;;;;;;;12.07;10.77;;;19.70;99.90;;;;;;5053990;28;20055;-84
2022/09/10 12:16:21;;;;;;;13.77;11.15;;;19.70;99.90;;;;;;5051236;28;20056;-83
2022/09/10 12:18:51;;;;;;;11.75;9.63;;;19.70;99.90;;;;;;5069575;28;20116;-84
2022/09/10 12:21:40;;;;;;;10.90;9.57;;;19.70;99.90;;;;;;5070114;28;20052;-83
2022/09/10 12:24:24;;;;;;;13.35;11.25;;;19.80;99.90;;;;;;5057678;28;20123;-84
2022/09/10 12:26:51;;;;;;;13.10;11.18;;;19.90;99.90;;;;;;5062576;27;20040;-84
2022/09/10 12:29:29;;;;;;;11.77;9.90;;;20.00;99.90;;;;;;5054640;28;20513;-84
2022/09/10 12:32:13;;;;;;;12.95;10.15;;;20.00;99.90;;;;;;5071393;27;20052;-84
2022/09/10 12:34:40;;;;;;;10.77;9.40;;;20.10;99.90;;;;;;5051450;27;20252;-83
2022/09/10 12:37:21;;;;;;;10.82;9.35;;;20.10;99.90;;;;;;5071900;28;20078;-83
2022/09/10 12:39:48;;;;;;;12.57;9.93;;;20.20;99.90;;;;;;5070134;28;20282;-84
2022/09/10 12:42:29;;;;;;;9.50;8.57;;;20.30;99.90;;;;;;5070978;28;20086;-82
2022/09/10 12:44:55;;;;;;;10.48;9.32;;;20.30;99.90;;;;;;5055442;28;20123;-83
2022/09/10 12:47:41;;;;;;;10.82;9.13;;;20.30;99.90;;;;;;5032346;28;20043;-83
2022/09/10 12:50:20;;;;;;;11.43;8.20;;;20.30;99.90;;;;;;5058059;28;20196;-82
2022/09/10 12:52:55;;;;;;;12.07;9.45;;;20.40;99.90;;;;;;5058382;28;20123;-82
2022/09/10 12:55:52;;;;;;;10.82;8.50;;;20.40;99.90;;;;;;5072352;28;20040;-83